Time;durP1;ratioP1;P1;durP2;ratioP2;P2;SDS_P1;SDS_P2;PMS_P1;PMS_P2;Temp;Humidity;BMP_temperature;BMP_pressure;BME280_temperature;BME280_humidity;BME280_pressure;Samples;Min_cycle;Max_cycle;Signal;HPM_P1;HPM_P2
2020/12/28 00:00:13;;;;;;;3.60;0.40;;;6.40;35.50;;;;;;6160650;23;20008;-83
2020/12/28 00:02:39;;;;;;;0.40;0.20;;;6.40;35.20;;;;;;6162367;23;20052;-83
2020/12/28 00:05:10;;;;;;;1.13;0.20;;;6.40;34.70;;;;;;6161862;23;19997;-82
2020/12/28 00:07:37;;;;;;;3.53;0.30;;;6.40;34.20;;;;;;6161584;23;20016;-82
2020/12/28 00:10:09;;;;;;;1.30;0.20;;;6.50;34.10;;;;;;6162239;23;20009;-82
2020/12/28 00:12:47;;;;;;;3.40;0.20;;;6.60;34.20;;;;;;6161442;23;20063;-83
2020/12/28 00:15:17;;;;;;;1.00;0.20;;;6.70;33.40;;;;;;6162018;23;20005;-82
2020/12/28 00:17:47;;;;;;;0.67;0.20;;;6.70;33.00;;;;;;6161921;23;20008;-82
2020/12/28 00:20:14;;;;;;;3.37;1.17;;;6.70;32.70;;;;;;6161336;23;20005;-82
2020/12/28 00:22:39;;;;;;;0.93;0.10;;;6.90;33.00;;;;;;6161961;23;20009;-83
2020/12/28 00:25:06;;;;;;;0.77;0.27;;;6.90;33.50;;;;;;6162078;23;20147;-83
2020/12/28 00:27:32;;;;;;;2.83;0.60;;;6.80;32.60;;;;;;6161247;23;20016;-83
2020/12/28 00:29:57;;;;;;;1.60;0.40;;;6.80;33.20;;;;;;6187072;23;20383;-83
2020/12/28 00:32:23;;;;;;;3.37;0.60;;;6.80;32.50;;;;;;6192496;23;20474;-81
2020/12/28 00:34:49;;;;;;;4.17;1.50;;;6.80;32.90;;;;;;6192631;23;20095;-81
2020/12/28 00:37:15;;;;;;;2.03;0.60;;;6.80;32.30;;;;;;6193607;23;20005;-81
2020/12/28 00:39:40;;;;;;;1.03;0.40;;;6.80;32.30;;;;;;6219342;23;20007;-81
2020/12/28 00:42:06;;;;;;;3.40;0.50;;;6.80;32.70;;;;;;6220440;23;20004;-81
2020/12/28 00:44:32;;;;;;;2.40;0.63;;;6.80;32.50;;;;;;6220563;23;20008;-80
2020/12/28 00:46:57;;;;;;;1.03;0.50;;;6.80;32.00;;;;;;6204889;23;20009;-80
2020/12/28 00:49:23;;;;;;;1.07;0.50;;;6.80;31.70;;;;;;6204216;23;20027;-82
2020/12/28 00:51:48;;;;;;;0.47;0.20;;;6.80;31.80;;;;;;6207452;23;20028;-81
2020/12/28 00:54:14;;;;;;;0.77;0.13;;;6.80;32.20;;;;;;6231539;23;19992;-81
2020/12/28 00:56:40;;;;;;;3.77;0.43;;;6.80;32.30;;;;;;6232445;23;20086;-81
2020/12/28 00:59:05;;;;;;;0.33;0.17;;;6.80;32.10;;;;;;6195461;23;20035;-81
2020/12/28 01:01:31;;;;;;;0.63;0.40;;;6.80;32.00;;;;;;6190607;23;20005;-82
2020/12/28 01:03:57;;;;;;;1.60;0.20;;;6.90;32.00;;;;;;6190528;23;20316;-81
2020/12/28 01:06:22;;;;;;;0.57;0.13;;;6.90;31.90;;;;;;6216809;23;20079;-82
2020/12/28 01:08:48;;;;;;;1.70;0.20;;;6.90;31.80;;;;;;6216177;23;20011;-82
2020/12/28 01:11:22;;;;;;;0.70;0.20;;;7.00;31.70;;;;;;6216625;23;19997;-82
2020/12/28 01:13:47;;;;;;;5.83;0.30;;;7.00;31.40;;;;;;6216895;23;20009;-82
2020/12/28 01:16:13;;;;;;;1.30;0.40;;;7.00;31.20;;;;;;6190903;23;20027;-82
2020/12/28 01:18:41;;;;;;;0.67;0.20;;;7.00;31.10;;;;;;6188919;23;20012;-82
2020/12/28 01:21:07;;;;;;;0.23;0.13;;;7.10;31.10;;;;;;6189859;23;20012;-82
2020/12/28 01:23:33;;;;;;;3.67;0.20;;;7.10;31.10;;;;;;6188749;23;20091;-82
2020/12/28 01:25:58;;;;;;;4.23;0.40;;;7.10;31.00;;;;;;6188787;23;20008;-82
2020/12/28 01:28:24;;;;;;;1.70;0.40;;;7.10;30.80;;;;;;6183343;23;20096;-82
2020/12/28 01:30:50;;;;;;;1.53;0.23;;;7.10;31.00;;;;;;6160741;23;20012;-83
2020/12/28 01:33:16;;;;;;;2.57;0.30;;;7.10;30.90;;;;;;6160261;23;20005;-82
2020/12/28 01:35:42;;;;;;;2.00;0.20;;;7.10;30.80;;;;;;6160228;23;20005;-82
2020/12/28 01:38:07;;;;;;;0.87;0.30;;;7.10;30.80;;;;;;6159859;23;20016;-82
2020/12/28 01:40:33;;;;;;;0.67;0.20;;;7.10;30.80;;;;;;6159459;23;20004;-82
2020/12/28 01:42:59;;;;;;;0.67;0.20;;;7.10;30.40;;;;;;6160310;23;20005;-82
2020/12/28 01:45:26;;;;;;;0.87;0.20;;;7.10;30.40;;;;;;6159847;23;20035;-82
2020/12/28 01:47:51;;;;;;;1.70;0.30;;;7.10;30.40;;;;;;6158832;23;20089;-82
2020/12/28 01:50:17;;;;;;;6.47;0.20;;;7.10;30.40;;;;;;6186598;23;20009;-82
2020/12/28 01:52:43;;;;;;;2.03;0.33;;;7.10;30.60;;;;;;6159966;23;20682;-81
2020/12/28 01:55:09;;;;;;;1.90;0.20;;;7.10;30.70;;;;;;6186219;23;20006;-81
2020/12/28 01:57:35;;;;;;;0.67;0.20;;;7.10;30.60;;;;;;6159174;23;20055;-81
2020/12/28 02:00:03;;;;;;;2.03;0.30;;;7.10;30.70;;;;;;6159015;23;20009;-81
2020/12/28 02:02:30;;;;;;;0.50;0.20;;;7.20;30.80;;;;;;6185430;23;20305;-81
2020/12/28 02:04:56;;;;;;;0.90;0.20;;;7.20;31.20;;;;;;6186418;23;20078;-81
2020/12/28 02:07:23;;;;;;;1.23;0.20;;;7.20;31.00;;;;;;6159367;23;20606;-82
2020/12/28 02:09:49;;;;;;;0.47;0.20;;;7.20;31.20;;;;;;6159287;23;20645;-81
2020/12/28 02:12:15;;;;;;;0.90;0.30;;;7.20;31.70;;;;;;6159397;23;20013;-81
2020/12/28 02:14:41;;;;;;;0.80;0.30;;;7.20;31.20;;;;;;6159191;23;20001;-81
2020/12/28 02:17:06;;;;;;;1.80;0.40;;;7.10;31.10;;;;;;6159151;23;20001;-81
2020/12/28 02:19:32;;;;;;;0.63;0.20;;;7.10;31.10;;;;;;6185969;23;20072;-81
2020/12/28 02:21:58;;;;;;;3.60;0.30;;;7.10;31.20;;;;;;6159265;23;20091;-81
2020/12/28 02:24:24;;;;;;;1.60;0.20;;;7.10;31.30;;;;;;6159541;23;20027;-81
2020/12/28 02:26:50;;;;;;;2.87;0.23;;;7.10;31.50;;;;;;6159219;23;20049;-81
2020/12/28 02:29:15;;;;;;;0.63;0.40;;;7.10;31.40;;;;;;6201652;23;20024;-81
2020/12/28 02:31:41;;;;;;;1.17;0.20;;;7.10;31.40;;;;;;6189724;23;20008;-81
2020/12/28 02:34:07;;;;;;;0.97;0.20;;;7.10;31.00;;;;;;6214924;23;20001;-81
2020/12/28 02:36:32;;;;;;;0.40;0.20;;;7.20;32.00;;;;;;6214693;23;20062;-81
2020/12/28 02:38:59;;;;;;;0.50;0.27;;;7.40;32.80;;;;;;6189033;23;20000;-81
2020/12/28 02:41:25;;;;;;;3.13;0.30;;;7.30;32.30;;;;;;6188895;23;20001;-81
2020/12/28 02:43:51;;;;;;;0.50;0.33;;;7.20;31.90;;;;;;6216675;23;20416;-82
2020/12/28 02:46:17;;;;;;;1.23;0.20;;;7.10;31.80;;;;;;6190544;23;20084;-82
2020/12/28 02:48:43;;;;;;;1.20;0.23;;;7.10;31.80;;;;;;6190560;23;20027;-81
2020/12/28 02:51:12;;;;;;;0.17;0.10;;;7.00;31.80;;;;;;6189579;23;19997;-81
2020/12/28 02:53:38;;;;;;;0.77;0.20;;;7.00;32.00;;;;;;6190926;23;20016;-81
2020/12/28 02:56:03;;;;;;;1.67;0.30;;;7.10;32.00;;;;;;6190416;23;20089;-81
2020/12/28 02:58:29;;;;;;;1.00;0.20;;;7.10;31.90;;;;;;6216310;23;20003;-81
2020/12/28 03:00:55;;;;;;;2.90;0.70;;;7.10;31.80;;;;;;6216207;23;20072;-81
2020/12/28 03:03:20;;;;;;;0.23;0.20;;;7.10;32.00;;;;;;6190439;23;20067;-81
2020/12/28 03:05:46;;;;;;;0.77;0.30;;;7.10;31.70;;;;;;6190636;23;20480;-81
2020/12/28 03:08:12;;;;;;;0.90;0.30;;;7.00;31.70;;;;;;6217594;23;20011;-81
2020/12/28 03:10:37;;;;;;;0.50;0.20;;;7.00;31.70;;;;;;6190423;23;20038;-81
2020/12/28 03:13:03;;;;;;;0.30;0.20;;;7.00;31.90;;;;;;6190228;23;20012;-81
2020/12/28 03:15:29;;;;;;;0.53;0.30;;;7.00;31.90;;;;;;6191118;23;20302;-81
2020/12/28 03:17:54;;;;;;;1.10;0.20;;;7.00;32.10;;;;;;6215971;23;20051;-81
2020/12/28 03:20:20;;;;;;;1.00;0.33;;;7.00;31.80;;;;;;6190788;23;20000;-81
2020/12/28 03:22:46;;;;;;;0.93;0.30;;;7.00;31.80;;;;;;6190362;23;20012;-81
2020/12/28 03:25:11;;;;;;;2.00;0.40;;;7.00;31.80;;;;;;6216741;23;20004;-81
2020/12/28 03:27:39;;;;;;;1.87;0.30;;;7.00;31.80;;;;;;6216649;23;20039;-81
2020/12/28 03:30:05;;;;;;;1.30;0.30;;;7.00;31.90;;;;;;6190924;23;20012;-81
2020/12/28 03:32:31;;;;;;;0.80;0.33;;;6.90;31.90;;;;;;6189319;23;20015;-81
2020/12/28 03:34:56;;;;;;;1.93;0.20;;;6.90;31.90;;;;;;6190508;23;20164;-81
2020/12/28 03:37:22;;;;;;;0.80;0.40;;;6.90;32.10;;;;;;6189787;23;20376;-81
2020/12/28 03:39:48;;;;;;;1.90;0.20;;;6.90;32.00;;;;;;6216555;23;20001;-82
2020/12/28 03:42:13;;;;;;;2.97;0.40;;;6.90;31.90;;;;;;6189406;23;20087;-81
2020/12/28 03:44:39;;;;;;;1.03;0.40;;;6.90;31.80;;;;;;6188945;23;20008;-82
2020/12/28 03:47:05;;;;;;;7.00;0.50;;;6.90;31.90;;;;;;6190889;23;20016;-82
2020/12/28 03:49:30;;;;;;;0.67;0.30;;;6.90;32.10;;;;;;6191389;23;20009;-82
2020/12/28 03:51:56;;;;;;;0.80;0.30;;;6.90;32.30;;;;;;6190975;23;20088;-82
2020/12/28 03:54:22;;;;;;;2.20;0.30;;;6.90;32.30;;;;;;6190359;23;20438;-82
2020/12/28 03:56:48;;;;;;;1.33;0.40;;;7.00;32.80;;;;;;6217114;23;20027;-82
2020/12/28 03:59:13;;;;;;;1.53;0.40;;;7.20;33.00;;;;;;6217155;23;20008;-82
2020/12/28 04:01:39;;;;;;;0.70;0.30;;;7.30;33.20;;;;;;6190460;23;20032;-82
2020/12/28 04:04:05;;;;;;;0.53;0.30;;;7.30;33.30;;;;;;6216259;23;20443;-82
2020/12/28 04:06:30;;;;;;;1.10;0.50;;;7.40;33.20;;;;;;6190968;23;20001;-82
2020/12/28 04:08:56;;;;;;;0.63;0.23;;;7.30;33.30;;;;;;6190327;23;20016;-82
2020/12/28 04:11:22;;;;;;;1.80;0.50;;;7.30;34.10;;;;;;6190519;23;20083;-82
2020/12/28 04:13:47;;;;;;;2.23;0.30;;;7.30;33.50;;;;;;6217857;23;20005;-82
2020/12/28 04:16:17;;;;;;;0.77;0.33;;;7.20;33.30;;;;;;6191035;23;20001;-82
2020/12/28 04:18:43;;;;;;;0.90;0.47;;;7.20;33.50;;;;;;6190549;23;20001;-82
2020/12/28 04:21:08;;;;;;;1.57;0.30;;;7.30;33.80;;;;;;6216590;23;20007;-82
2020/12/28 04:23:34;;;;;;;1.13;0.40;;;7.40;34.30;;;;;;6190840;23;20004;-82
2020/12/28 04:26:00;;;;;;;3.17;0.40;;;7.60;34.70;;;;;;6189589;23;20008;-82
2020/12/28 04:28:25;;;;;;;2.00;0.40;;;7.60;34.60;;;;;;6216748;23;20015;-82
2020/12/28 04:30:51;;;;;;;5.73;0.50;;;7.60;34.80;;;;;;6189796;23;20004;-82
2020/12/28 04:33:17;;;;;;;2.53;0.30;;;7.60;34.40;;;;;;6190272;23;20027;-82
2020/12/28 04:35:43;;;;;;;2.73;0.47;;;7.60;34.70;;;;;;6190049;23;20424;-82
2020/12/28 04:38:09;;;;;;;0.97;0.40;;;7.60;35.30;;;;;;6189875;23;20011;-82
2020/12/28 04:40:34;;;;;;;1.73;0.50;;;7.60;35.20;;;;;;6189904;23;20005;-82
2020/12/28 04:43:02;;;;;;;2.93;0.40;;;7.30;35.00;;;;;;6190407;23;20005;-82
2020/12/28 04:45:27;;;;;;;0.50;0.20;;;7.30;36.10;;;;;;6217392;23;20024;-82
2020/12/28 04:47:57;;;;;;;2.10;0.40;;;7.50;36.10;;;;;;6189806;23;20043;-82
2020/12/28 04:50:23;;;;;;;0.93;0.50;;;7.40;36.50;;;;;;6216001;23;20391;-82
2020/12/28 04:52:48;;;;;;;10.07;0.87;;;7.40;36.30;;;;;;6215909;23;20008;-82
2020/12/28 04:55:14;;;;;;;2.63;0.73;;;7.30;36.30;;;;;;6187571;23;20015;-82
2020/12/28 04:57:39;;;;;;;2.03;0.67;;;7.30;37.20;;;;;;6188549;23;20001;-82
2020/12/28 05:00:05;;;;;;;2.17;0.37;;;7.40;37.50;;;;;;6189715;23;20024;-82
2020/12/28 05:02:32;;;;;;;1.37;0.50;;;7.60;37.60;;;;;;6216168;23;20008;-82
2020/12/28 05:05:08;;;;;;;1.70;0.40;;;7.90;37.70;;;;;;6189964;23;20143;-82
2020/12/28 05:07:34;;;;;;;1.00;0.43;;;8.00;37.20;;;;;;6189949;23;20012;-82
2020/12/28 05:10:00;;;;;;;2.17;0.53;;;7.90;36.50;;;;;;6216857;23;20356;-82
2020/12/28 05:12:26;;;;;;;1.83;0.80;;;7.80;36.80;;;;;;6190565;23;20005;-82
2020/12/28 05:15:06;;;;;;;4.47;0.80;;;7.90;37.10;;;;;;6188715;23;20001;-82
2020/12/28 05:17:32;;;;;;;2.37;0.50;;;7.70;37.20;;;;;;6216332;23;19996;-82
2020/12/28 05:20:03;;;;;;;3.50;0.50;;;7.50;37.30;;;;;;6190013;23;19996;-82
2020/12/28 05:22:31;;;;;;;0.90;0.53;;;7.60;37.70;;;;;;6216664;23;20000;-82
2020/12/28 05:24:57;;;;;;;1.70;0.77;;;7.60;37.40;;;;;;6190706;23;20012;-82
2020/12/28 05:27:23;;;;;;;3.30;0.93;;;7.50;37.90;;;;;;6215618;23;20435;-82
2020/12/28 05:29:50;;;;;;;2.30;1.10;;;7.60;38.60;;;;;;6166237;23;20044;-82
2020/12/28 05:32:17;;;;;;;4.43;1.20;;;7.60;38.60;;;;;;6159544;23;20063;-82
2020/12/28 05:34:47;;;;;;;3.40;1.60;;;7.60;38.80;;;;;;6160456;23;20024;-82
2020/12/28 05:37:16;;;;;;;5.40;1.07;;;7.50;38.80;;;;;;6160540;23;20471;-82
2020/12/28 05:39:43;;;;;;;2.80;1.00;;;7.50;39.30;;;;;;6159545;23;20011;-82
2020/12/28 05:42:12;;;;;;;4.50;1.07;;;7.50;39.10;;;;;;6186228;23;20001;-82
2020/12/28 05:44:40;;;;;;;5.13;1.47;;;7.50;39.20;;;;;;6186424;23;20025;-82
2020/12/28 05:47:16;;;;;;;9.17;1.43;;;7.40;39.20;;;;;;6187001;23;20005;-82
2020/12/28 05:49:44;;;;;;;5.67;1.43;;;7.30;39.60;;;;;;6160115;23;20016;-82
2020/12/28 05:52:12;;;;;;;3.77;1.30;;;7.20;39.80;;;;;;6160279;23;20111;-82
2020/12/28 05:54:38;;;;;;;3.37;1.27;;;7.10;40.00;;;;;;6186285;23;20009;-82
2020/12/28 05:57:05;;;;;;;1.90;0.93;;;7.10;40.30;;;;;;6182411;23;20032;-82
2020/12/28 05:59:32;;;;;;;4.73;1.53;;;7.00;40.50;;;;;;6213484;23;20297;-82
2020/12/28 06:01:59;;;;;;;3.97;2.73;;;6.90;40.90;;;;;;6212070;23;20446;-82
2020/12/28 06:04:25;;;;;;;6.37;1.73;;;6.90;41.20;;;;;;6214000;23;20008;-82
2020/12/28 06:06:59;;;;;;;6.13;1.90;;;6.70;41.10;;;;;;6214464;23;20099;-82
2020/12/28 06:09:26;;;;;;;2.40;1.20;;;6.70;41.40;;;;;;6215065;23;20032;-82
2020/12/28 06:12:11;;;;;;;7.07;1.60;;;6.70;41.50;;;;;;6216244;23;20327;-82
2020/12/28 06:14:39;;;;;;;19.00;1.40;;;6.70;41.60;;;;;;6213336;23;20011;-82
2020/12/28 06:17:10;;;;;;;7.10;1.73;;;6.70;41.80;;;;;;6215189;23;20443;-82
2020/12/28 06:19:36;;;;;;;8.17;2.57;;;6.70;42.10;;;;;;6214211;23;20087;-82
2020/12/28 06:22:02;;;;;;;11.67;3.37;;;6.60;42.20;;;;;;6216189;23;20070;-82
2020/12/28 06:24:33;;;;;;;9.67;2.97;;;6.60;42.30;;;;;;6213391;23;20011;-82
2020/12/28 06:27:10;;;;;;;7.53;2.30;;;6.50;42.70;;;;;;6213322;23;20009;-82
2020/12/28 06:29:37;;;;;;;15.20;2.93;;;6.50;43.30;;;;;;6214153;23;20008;-81
2020/12/28 06:32:14;;;;;;;15.57;6.63;;;6.50;43.40;;;;;;6212898;23;20031;-82
2020/12/28 06:34:42;;;;;;;8.97;2.40;;;6.50;43.50;;;;;;6214594;23;20413;-81
2020/12/28 06:37:08;;;;;;;14.17;2.23;;;6.50;43.80;;;;;;6213960;23;20011;-81
2020/12/28 06:39:34;;;;;;;6.97;2.27;;;6.40;44.00;;;;;;6215653;23;20000;-81
2020/12/28 06:42:14;;;;;;;7.60;2.30;;;6.40;44.30;;;;;;6214511;23;20013;-81
2020/12/28 06:44:41;;;;;;;9.80;1.53;;;6.30;44.70;;;;;;6213364;23;20095;-82
2020/12/28 06:47:21;;;;;;;7.87;2.70;;;6.40;44.70;;;;;;6211892;23;20083;-82
2020/12/28 06:49:47;;;;;;;17.23;2.40;;;6.30;45.40;;;;;;6213439;23;20004;-82
2020/12/28 06:52:13;;;;;;;5.97;1.93;;;6.30;45.00;;;;;;6212812;23;20009;-82
2020/12/28 06:54:39;;;;;;;7.30;2.50;;;6.30;45.30;;;;;;6211724;23;20001;-82
2020/12/28 06:57:06;;;;;;;10.63;3.73;;;6.30;45.40;;;;;;6213286;23;20042;-82
2020/12/28 06:59:33;;;;;;;22.43;9.73;;;6.30;45.60;;;;;;6212432;23;20327;-82
2020/12/28 07:01:59;;;;;;;31.03;15.70;;;6.30;45.90;;;;;;6212215;23;20083;-82
2020/12/28 07:04:27;;;;;;;23.10;9.33;;;6.20;46.20;;;;;;6208587;23;20545;-82
2020/12/28 07:07:06;;;;;;;14.37;7.47;;;6.10;46.40;;;;;;6208145;23;20088;-81
2020/12/28 07:09:32;;;;;;;10.73;4.87;;;6.10;46.70;;;;;;6215337;23;20008;-81
2020/12/28 07:12:11;;;;;;;11.60;4.53;;;6.10;47.00;;;;;;6213341;23;20011;-81
2020/12/28 07:14:37;;;;;;;12.90;5.43;;;6.10;47.10;;;;;;6212839;23;20424;-81
2020/12/28 07:17:04;;;;;;;16.70;4.30;;;6.10;47.20;;;;;;6215005;23;20442;-81
2020/12/28 07:19:30;;;;;;;12.20;4.03;;;6.00;47.40;;;;;;6212919;23;20009;-81
2020/12/28 07:21:56;;;;;;;10.53;3.40;;;5.90;47.70;;;;;;6213852;23;20311;-81
2020/12/28 07:24:22;;;;;;;5.60;2.87;;;5.90;48.00;;;;;;6212605;23;20008;-81
2020/12/28 07:26:48;;;;;;;13.33;4.13;;;5.90;48.10;;;;;;6212445;23;20109;-81
2020/12/28 07:29:15;;;;;;;17.80;6.40;;;5.90;48.20;;;;;;6213545;23;20009;-81
2020/12/28 07:31:42;;;;;;;16.37;5.53;;;5.90;48.30;;;;;;6214663;23;20071;-81
2020/12/28 07:34:16;;;;;;;10.17;4.23;;;5.90;48.40;;;;;;6213541;23;20383;-81
2020/12/28 07:36:47;;;;;;;13.53;3.97;;;5.80;48.60;;;;;;6216799;23;20327;-81
2020/12/28 07:39:14;;;;;;;91.50;31.93;;;5.80;48.90;;;;;;6214576;23;20082;-81
2020/12/28 07:41:41;;;;;;;32.30;9.67;;;5.80;49.00;;;;;;6215689;23;19997;-81
2020/12/28 07:44:11;;;;;;;14.07;5.33;;;5.80;49.10;;;;;;6214900;23;20038;-81
2020/12/28 07:46:43;;;;;;;6.50;3.90;;;5.90;49.10;;;;;;6214447;23;20107;-81
2020/12/28 07:49:26;;;;;;;11.95;4.00;;;5.90;49.30;;;;;;6213395;23;20008;-81
2020/12/28 07:51:57;;;;;;;13.60;8.02;;;5.90;49.30;;;;;;6216355;23;20064;-81
2020/12/28 07:54:26;;;;;;;19.40;6.33;;;5.90;49.40;;;;;;6214372;23;20016;-81
2020/12/28 07:57:01;;;;;;;18.53;6.50;;;5.90;49.40;;;;;;6214817;23;20013;-81
2020/12/28 07:59:46;;;;;;;14.70;7.20;;;5.90;49.70;;;;;;6211730;23;20096;-81
2020/12/28 08:02:50;;;;;;;18.53;6.70;;;5.90;49.80;;;;;;6214687;23;20419;-81
2020/12/28 08:05:19;;;;;;;13.30;6.50;;;5.80;49.90;;;;;;6214695;23;20001;-81
2020/12/28 08:07:44;;;;;;;17.40;7.87;;;5.90;49.90;;;;;;6214682;23;20013;-81
2020/12/28 08:10:11;;;;;;;13.67;7.00;;;5.80;50.00;;;;;;6216938;23;20000;-81
2020/12/28 08:12:59;;;;;;;14.73;6.17;;;5.80;50.20;;;;;;6217284;23;20083;-80
2020/12/28 08:15:35;;;;;;;12.17;5.37;;;5.90;50.50;;;;;;6214977;23;20104;-80
2020/12/28 08:18:19;;;;;;;14.63;6.00;;;5.90;50.50;;;;;;6216059;23;20043;-80
2020/12/28 08:20:55;;;;;;;18.37;7.50;;;5.90;50.60;;;;;;6216198;23;20159;-81
2020/12/28 08:23:25;;;;;;;17.47;6.30;;;5.80;50.70;;;;;;6217280;23;20347;-81
2020/12/28 08:25:51;;;;;;;17.93;7.47;;;5.90;50.70;;;;;;6215267;23;20001;-80
2020/12/28 08:28:18;;;;;;;22.83;9.87;;;5.90;50.70;;;;;;6215694;23;20409;-80
2020/12/28 08:30:44;;;;;;;18.30;9.70;;;5.90;50.80;;;;;;6215068;23;20332;-80
2020/12/28 08:33:10;;;;;;;20.10;7.60;;;6.00;50.80;;;;;;6215717;23;20043;-80
2020/12/28 08:35:46;;;;;;;17.17;9.17;;;6.00;50.80;;;;;;6216188;23;20392;-80
2020/12/28 08:38:11;;;;;;;16.07;7.30;;;6.00;50.90;;;;;;6217275;23;20059;-80
2020/12/28 08:40:37;;;;;;;33.03;13.07;;;6.10;51.10;;;;;;6215580;23;20423;-80
2020/12/28 08:43:03;;;;;;;26.30;13.00;;;6.20;51.60;;;;;;6216771;23;20023;-81
2020/12/28 08:45:28;;;;;;;20.83;13.00;;;6.20;51.10;;;;;;6215665;23;20354;-81
2020/12/28 08:47:56;;;;;;;26.63;13.73;;;6.20;51.20;;;;;;6216816;23;20012;-81
2020/12/28 08:50:23;;;;;;;24.17;13.17;;;6.20;51.20;;;;;;6214047;23;20324;-81
2020/12/28 08:52:50;;;;;;;20.43;9.17;;;6.30;51.20;;;;;;6214586;23;20005;-81
2020/12/28 08:55:18;;;;;;;17.27;7.40;;;6.30;51.20;;;;;;6214963;23;20072;-81
2020/12/28 08:57:50;;;;;;;15.57;8.40;;;6.30;51.20;;;;;;6215298;23;20012;-81
2020/12/28 09:00:16;;;;;;;12.75;6.30;;;6.20;51.50;;;;;;6214278;23;20012;-81
2020/12/28 09:02:50;;;;;;;12.73;6.17;;;6.20;51.40;;;;;;6217306;23;20005;-81
2020/12/28 09:05:16;;;;;;;11.93;6.97;;;6.20;51.50;;;;;;6215035;23;20016;-81
2020/12/28 09:07:41;;;;;;;12.63;5.77;;;6.20;51.60;;;;;;6215914;23;20009;-81
2020/12/28 09:10:07;;;;;;;17.43;6.53;;;6.10;51.70;;;;;;6214506;23;20385;-82
2020/12/28 09:12:33;;;;;;;15.33;5.63;;;6.20;51.80;;;;;;6218787;23;20009;-82
2020/12/28 09:14:58;;;;;;;19.57;7.37;;;6.20;51.80;;;;;;6217511;23;20832;-82
2020/12/28 09:17:24;;;;;;;25.87;7.90;;;6.20;51.70;;;;;;6217046;23;20332;-82
2020/12/28 09:19:50;;;;;;;21.53;7.20;;;6.30;51.80;;;;;;6216315;23;20007;-82
2020/12/28 09:22:15;;;;;;;27.10;10.00;;;6.30;51.90;;;;;;6217041;23;20355;-82
2020/12/28 09:24:41;;;;;;;18.47;8.80;;;6.30;51.80;;;;;;6216749;23;20304;-82
2020/12/28 09:27:07;;;;;;;20.03;6.13;;;6.30;52.00;;;;;;6218477;23;20035;-82
2020/12/28 09:29:33;;;;;;;18.83;5.53;;;6.40;51.90;;;;;;6215812;23;20013;-81
2020/12/28 09:31:59;;;;;;;13.23;6.57;;;6.50;51.60;;;;;;6216121;23;20015;-81
2020/12/28 09:34:25;;;;;;;10.60;5.07;;;6.70;52.00;;;;;;6217157;23;20000;-81
2020/12/28 09:37:07;;;;;;;7.60;3.20;;;6.70;51.10;;;;;;6215781;23;20000;-81
2020/12/28 09:39:34;;;;;;;2.95;1.52;;;6.90;50.30;;;;;;6216831;23;20068;-81
2020/12/28 09:42:00;;;;;;;4.63;1.77;;;7.00;49.70;;;;;;6216506;23;20012;-81
2020/12/28 09:44:26;;;;;;;6.57;1.30;;;7.20;49.00;;;;;;6215474;23;20005;-82
2020/12/28 09:46:53;;;;;;;10.67;1.30;;;7.40;48.60;;;;;;6216205;23;20121;-82
2020/12/28 09:49:22;;;;;;;3.00;1.20;;;7.70;48.10;;;;;;6216325;23;20015;-82
2020/12/28 09:51:52;;;;;;;1.57;0.70;;;7.70;47.10;;;;;;6217551;23;20424;-81
2020/12/28 09:54:20;;;;;;;1.67;0.60;;;7.90;46.80;;;;;;6215989;23;20011;-81
2020/12/28 09:56:45;;;;;;;5.33;0.53;;;8.00;46.40;;;;;;6213629;23;20031;-81
2020/12/28 09:59:11;;;;;;;6.33;0.87;;;8.10;45.90;;;;;;6217079;23;20658;-81
2020/12/28 10:01:37;;;;;;;1.07;0.30;;;8.20;45.80;;;;;;6217773;23;20009;-81
2020/12/28 10:04:03;;;;;;;1.67;0.40;;;8.20;45.60;;;;;;6216354;23;20391;-81
2020/12/28 10:06:31;;;;;;;7.03;0.37;;;8.30;45.40;;;;;;6217202;23;20012;-81
2020/12/28 10:08:58;;;;;;;14.07;1.30;;;8.30;45.40;;;;;;6216779;23;20000;-81
2020/12/28 10:11:24;;;;;;;2.30;0.47;;;8.20;45.20;;;;;;6218653;23;20001;-81
2020/12/28 10:13:50;;;;;;;3.30;0.60;;;8.20;45.40;;;;;;6216359;23;20027;-81
2020/12/28 10:16:27;;;;;;;1.63;0.80;;;8.10;45.40;;;;;;6215979;23;20055;-81
2020/12/28 10:18:53;;;;;;;3.90;0.60;;;8.10;45.60;;;;;;6216544;23;20000;-81
2020/12/28 10:21:20;;;;;;;3.73;0.73;;;8.10;45.60;;;;;;6217733;23;20028;-81
2020/12/28 10:23:47;;;;;;;1.53;0.30;;;8.00;45.60;;;;;;6218945;23;20468;-81
2020/12/28 10:26:24;;;;;;;0.60;0.50;;;7.90;45.50;;;;;;6215896;23;20516;-81
2020/12/28 10:28:51;;;;;;;1.60;0.57;;;7.90;45.70;;;;;;6217407;23;20013;-81
2020/12/28 10:31:18;;;;;;;2.20;0.73;;;7.90;45.70;;;;;;6215829;23;20637;-81
2020/12/28 10:33:45;;;;;;;1.97;0.70;;;7.90;45.70;;;;;;6217177;23;20004;-81
2020/12/28 10:36:29;;;;;;;3.53;1.00;;;7.90;45.80;;;;;;6218398;23;20088;-81
2020/12/28 10:38:57;;;;;;;1.60;0.57;;;7.90;45.90;;;;;;6216760;23;20383;-81
2020/12/28 10:41:32;;;;;;;4.53;0.70;;;7.80;45.90;;;;;;6217154;23;20054;-81
2020/12/28 10:43:58;;;;;;;4.23;0.60;;;7.80;46.00;;;;;;6216145;23;20087;-83
2020/12/28 10:46:30;;;;;;;2.40;0.57;;;7.90;46.20;;;;;;6219108;23;20031;-86
2020/12/28 10:48:59;;;;;;;1.83;0.33;;;8.00;46.30;;;;;;6215075;23;20000;-83
2020/12/28 10:51:25;;;;;;;3.63;0.37;;;7.90;46.20;;;;;;6219026;23;20228;-83
2020/12/28 10:53:51;;;;;;;0.63;0.30;;;7.90;46.20;;;;;;6217372;23;20015;-83
2020/12/28 10:56:37;;;;;;;1.53;0.40;;;7.90;46.40;;;;;;6218425;23;20008;-83
2020/12/28 10:59:02;;;;;;;3.77;0.40;;;7.90;46.60;;;;;;6221190;23;20008;-83
2020/12/28 11:01:28;;;;;;;1.47;0.53;;;7.90;46.70;;;;;;6222260;23;20137;-83
2020/12/28 11:03:54;;;;;;;2.87;0.37;;;8.00;46.60;;;;;;6249509;23;20416;-82
2020/12/28 11:06:22;;;;;;;0.70;0.30;;;7.90;46.60;;;;;;6223492;23;20008;-82
2020/12/28 11:08:48;;;;;;;0.47;0.20;;;7.90;46.90;;;;;;6250680;23;20586;-82
2020/12/28 11:11:16;;;;;;;2.27;0.50;;;7.90;47.10;;;;;;6224900;23;20062;-82
2020/12/28 11:13:42;;;;;;;1.50;0.40;;;7.90;47.10;;;;;;6225342;23;20018;-82
2020/12/28 11:16:08;;;;;;;3.10;0.30;;;7.90;47.30;;;;;;6224685;23;20087;-82
2020/12/28 11:18:34;;;;;;;0.90;0.30;;;7.90;47.40;;;;;;6229712;23;20004;-82
2020/12/28 11:21:01;;;;;;;3.07;0.40;;;7.90;47.60;;;;;;6235778;23;20004;-82
2020/12/28 11:23:57;;;;;;;0.33;0.20;;;7.80;47.60;;;;;;6263101;23;20004;-82
2020/12/28 11:26:19;;;;;;;0.97;0.40;;;7.80;47.70;;;;;;6262929;23;20012;-82
2020/12/28 11:28:45;;;;;;;5.07;0.20;;;7.80;47.90;;;;;;6240891;22;20012;-84
2020/12/28 11:31:15;;;;;;;3.70;0.30;;;7.80;47.90;;;;;;6189766;23;20008;-84
2020/12/28 11:33:41;;;;;;;1.50;0.80;;;7.80;48.10;;;;;;6194241;23;20001;-85
2020/12/28 11:36:07;;;;;;;0.57;0.33;;;7.80;48.30;;;;;;6195838;23;19997;-84
2020/12/28 11:38:33;;;;;;;2.40;0.50;;;7.80;48.30;;;;;;6194030;23;20005;-85
2020/12/28 11:40:58;;;;;;;1.43;0.20;;;7.80;48.50;;;;;;6194997;23;20001;-85
2020/12/28 11:43:25;;;;;;;1.50;0.50;;;7.80;48.70;;;;;;6222473;23;20056;-84
2020/12/28 11:45:51;;;;;;;0.97;0.40;;;7.80;48.90;;;;;;6195157;23;20462;-84
2020/12/28 11:48:16;;;;;;;0.53;0.20;;;7.80;48.90;;;;;;6193625;23;20008;-84
2020/12/28 11:50:42;;;;;;;0.97;0.30;;;7.80;49.10;;;;;;6194542;23;20004;-85
2020/12/28 11:53:08;;;;;;;6.23;0.63;;;7.80;49.20;;;;;;6195275;23;20012;-85
2020/12/28 11:56:05;;;;;;;1.97;0.70;;;7.70;49.80;;;;;;6195005;23;20000;-85
2020/12/28 11:58:41;;;;;;;0.70;0.40;;;7.70;49.80;;;;;;6196292;23;20416;-86
2020/12/28 12:01:18;;;;;;;0.43;0.17;;;7.80;49.80;;;;;;6172570;23;20008;-85
2020/12/28 12:03:46;;;;;;;0.60;0.20;;;7.80;49.90;;;;;;6196633;23;20019;-85
2020/12/28 12:06:18;;;;;;;1.43;0.80;;;7.70;50.10;;;;;;6196479;23;20040;-85
2020/12/28 12:11:32;;;;;;;1.10;0.57;;;7.80;50.50;;;;;;6222584;23;20092;-85
2020/12/28 12:13:58;;;;;;;1.00;0.30;;;7.70;50.60;;;;;;6196896;23;20008;-85
2020/12/28 12:16:25;;;;;;;10.13;4.20;;;7.70;50.90;;;;;;6196788;23;20088;-85
2020/12/28 12:18:51;;;;;;;5.23;1.37;;;7.60;50.80;;;;;;6194897;23;20037;-85
2020/12/28 12:21:17;;;;;;;2.07;1.17;;;7.60;51.00;;;;;;6195367;23;20000;-85
2020/12/28 12:23:46;;;;;;;1.40;0.47;;;7.60;51.10;;;;;;6195249;23;20013;-84
2020/12/28 12:26:20;;;;;;;1.80;0.40;;;7.60;51.30;;;;;;6196202;23;20096;-85
2020/12/28 12:28:46;;;;;;;1.43;0.80;;;7.70;51.50;;;;;;6194006;23;20020;-85
2020/12/28 12:31:16;;;;;;;1.87;0.80;;;7.70;51.30;;;;;;6196611;23;20039;-85
2020/12/28 12:33:43;;;;;;;2.23;1.10;;;7.70;51.00;;;;;;6196278;23;20068;-85
2020/12/28 12:36:09;;;;;;;2.57;1.07;;;7.70;51.20;;;;;;6194585;23;20004;-85
2020/12/28 12:38:38;;;;;;;1.30;0.80;;;7.80;51.30;;;;;;6196465;23;20068;-85
2020/12/28 12:41:04;;;;;;;2.30;0.97;;;7.80;51.20;;;;;;6195282;23;20012;-85
2020/12/28 12:43:30;;;;;;;1.27;0.50;;;7.70;51.00;;;;;;6195799;23;20462;-85
2020/12/28 12:45:56;;;;;;;0.63;0.30;;;7.70;51.30;;;;;;6195040;23;20011;-84
2020/12/28 12:48:22;;;;;;;2.57;0.80;;;7.80;51.30;;;;;;6222050;23;20080;-85
2020/12/28 12:50:49;;;;;;;2.23;0.93;;;7.80;50.80;;;;;;6195415;23;20040;-85
2020/12/28 12:53:20;;;;;;;4.73;1.43;;;7.80;51.00;;;;;;6195507;23;20421;-85
2020/12/28 12:55:45;;;;;;;3.23;1.27;;;7.80;50.90;;;;;;6195085;23;20035;-85
2020/12/28 12:58:14;;;;;;;0.90;0.30;;;7.80;51.10;;;;;;6194982;23;20338;-85
2020/12/28 13:00:42;;;;;;;2.07;0.73;;;7.90;51.00;;;;;;6195389;23;20482;-85